createdAt,value
2019-06-26T00:01:56.655Z,21.20
2019-06-26T00:04:25.209Z,21.20
2019-06-26T00:06:55.117Z,21.20
2019-06-26T00:09:23.678Z,21.10
2019-06-26T00:11:52.338Z,21.10
2019-06-26T00:14:20.952Z,21.10
2019-06-26T00:16:49.618Z,21.00
2019-06-26T00:19:18.195Z,21.00
2019-06-26T00:21:46.737Z,21.00
2019-06-26T00:24:15.321Z,20.90
2019-06-26T00:26:43.879Z,20.80
2019-06-26T00:29:12.435Z,20.80
2019-06-26T00:31:41.014Z,20.80
2019-06-26T00:34:09.563Z,20.80
2019-06-26T00:36:38.114Z,20.80
2019-06-26T00:39:07.625Z,20.80
2019-06-26T00:41:36.185Z,20.80
2019-06-26T00:44:04.928Z,20.70
2019-06-26T00:46:33.453Z,20.60
2019-06-26T00:49:02.069Z,20.60
2019-06-26T00:51:30.726Z,20.60
2019-06-26T00:54:00.072Z,20.60
2019-06-26T00:56:28.625Z,20.60
2019-06-26T00:58:57.178Z,20.40
2019-06-26T01:01:25.918Z,20.40
2019-06-26T01:03:56.107Z,20.50
2019-06-26T01:06:41.073Z,20.50
2019-06-26T01:09:09.708Z,20.50
2019-06-26T01:11:38.404Z,20.50
2019-06-26T01:14:07.386Z,20.40
2019-06-26T01:16:35.918Z,20.40
2019-06-26T01:19:04.994Z,20.30
2019-06-26T01:21:33.639Z,20.30
2019-06-26T01:24:02.177Z,20.20
2019-06-26T01:26:30.733Z,20.10
2019-06-26T01:29:00.280Z,20.10
2019-06-26T01:31:28.834Z,20.00
2019-06-26T01:33:57.527Z,20.00
2019-06-26T01:36:26.166Z,19.90
2019-06-26T01:38:54.790Z,19.90
2019-06-26T01:41:23.346Z,20.00
2019-06-26T01:43:51.913Z,19.90
2019-06-26T01:46:20.530Z,19.90
2019-06-26T01:48:49.088Z,19.90
2019-06-26T01:51:17.654Z,19.90
2019-06-26T01:53:46.203Z,19.90
2019-06-26T01:56:14.759Z,19.90
2019-06-26T01:58:43.318Z,19.90
2019-06-26T02:01:11.883Z,19.80
2019-06-26T02:03:40.427Z,19.80
2019-06-26T02:06:08.990Z,19.80
2019-06-26T02:08:37.538Z,19.80
2019-06-26T02:11:06.155Z,19.80
2019-06-26T02:13:34.728Z,19.60
2019-06-26T02:16:03.282Z,19.60
2019-06-26T02:18:33.479Z,19.70
2019-06-26T02:21:02.047Z,19.60
2019-06-26T02:23:30.688Z,19.70
2019-06-26T02:25:59.235Z,19.60
2019-06-26T02:28:27.826Z,19.60
2019-06-26T02:30:56.385Z,19.50
2019-06-26T02:33:24.940Z,19.50
2019-06-26T02:35:53.507Z,19.50
2019-06-26T02:38:22.068Z,19.50
2019-06-26T02:40:50.620Z,19.60
2019-06-26T02:43:19.468Z,19.50
2019-06-26T02:45:48.967Z,19.30
2019-06-26T02:48:17.520Z,19.30
2019-06-26T02:50:46.090Z,19.20
2019-06-26T02:53:14.635Z,19.30
2019-06-26T02:55:43.193Z,19.40
2019-06-26T02:58:11.754Z,19.50
2019-06-26T03:00:40.367Z,19.50
2019-06-26T03:03:08.996Z,19.60
2019-06-26T03:05:37.567Z,19.60
2019-06-26T03:08:06.106Z,19.60
2019-06-26T03:10:34.684Z,19.60
2019-06-26T03:13:03.297Z,19.60
2019-06-26T03:15:31.912Z,19.60
2019-06-26T03:18:00.469Z,19.60
2019-06-26T03:20:32.101Z,19.40
2019-06-26T03:23:00.653Z,19.30
2019-06-26T03:25:29.466Z,19.40
2019-06-26T03:27:58.632Z,19.50
2019-06-26T03:30:27.224Z,19.50
2019-06-26T03:32:55.745Z,19.60
2019-06-26T03:35:24.375Z,19.70
2019-06-26T03:37:52.925Z,19.70
2019-06-26T03:40:21.542Z,19.80
2019-06-26T03:42:50.786Z,19.70
2019-06-26T03:45:25.557Z,19.80
2019-06-26T03:47:49.682Z,19.90
2019-06-26T03:50:20.283Z,19.90
2019-06-26T03:52:48.831Z,19.90
2019-06-26T03:55:17.531Z,19.90
2019-06-26T03:57:46.092Z,19.90
2019-06-26T04:00:16.458Z,19.90
2019-06-26T04:02:45.013Z,19.90
2019-06-26T04:05:13.569Z,19.90
2019-06-26T04:07:42.118Z,20.00
2019-06-26T04:10:10.983Z,20.10
2019-06-26T04:12:39.646Z,20.00
2019-06-26T04:15:08.926Z,20.00
2019-06-26T04:17:37.477Z,20.00
2019-06-26T04:20:07.977Z,20.00
2019-06-26T04:22:36.526Z,20.00
2019-06-26T04:25:06.694Z,20.10
2019-06-26T04:27:35.281Z,20.00
2019-06-26T04:30:07.711Z,19.90
2019-06-26T04:32:36.328Z,19.90
2019-06-26T04:35:06.259Z,20.10
2019-06-26T04:37:34.912Z,20.10
2019-06-26T04:40:05.772Z,20.10
2019-06-26T04:42:34.337Z,20.10
2019-06-26T04:45:02.881Z,20.00
2019-06-26T04:47:31.438Z,19.90
2019-06-26T04:50:00.420Z,19.80
2019-06-26T04:52:28.939Z,19.90
2019-06-26T04:54:57.549Z,20.00
2019-06-26T04:57:26.223Z,20.00
2019-06-26T04:59:54.766Z,20.00
2019-06-26T05:02:23.315Z,20.00
2019-06-26T05:04:51.953Z,20.00
2019-06-26T05:07:20.533Z,20.00
2019-06-26T05:09:49.087Z,20.10
2019-06-26T05:12:17.647Z,20.20
2019-06-26T05:14:46.205Z,20.40
2019-06-26T05:17:14.767Z,20.30
2019-06-26T05:19:43.425Z,20.40
2019-06-26T05:22:11.988Z,20.40
2019-06-26T05:24:40.559Z,20.50
2019-06-26T05:27:09.238Z,20.50
2019-06-26T05:29:37.777Z,20.70
2019-06-26T05:32:06.417Z,20.70
2019-06-26T05:34:34.989Z,20.60
2019-06-26T05:37:03.572Z,20.70
2019-06-26T05:39:32.197Z,20.80
2019-06-26T05:42:00.881Z,20.90
2019-06-26T05:44:29.458Z,20.90
2019-06-26T05:46:58.013Z,20.90
2019-06-26T05:49:26.575Z,20.90
2019-06-26T05:51:55.138Z,21.00
2019-06-26T05:54:23.695Z,21.00
2019-06-26T05:56:52.302Z,20.90
2019-06-26T05:59:20.827Z,20.90
2019-06-26T06:01:49.447Z,20.90
2019-06-26T06:04:18.203Z,20.90
2019-06-26T06:06:46.757Z,21.00
2019-06-26T06:09:15.296Z,21.00
2019-06-26T06:11:43.909Z,21.10
2019-06-26T06:14:12.457Z,21.10
2019-06-26T06:16:47.489Z,21.10
2019-06-26T06:19:11.495Z,21.40
2019-06-26T06:21:40.067Z,21.40
2019-06-26T06:24:08.628Z,21.40
2019-06-26T06:26:37.280Z,21.20
2019-06-26T06:29:05.946Z,21.30
2019-06-26T06:31:34.497Z,21.50
2019-06-26T06:34:03.260Z,21.60
2019-06-26T06:36:31.894Z,21.70
2019-06-26T06:39:00.425Z,21.60
2019-06-26T06:41:28.979Z,21.80
2019-06-26T06:43:57.531Z,21.80
2019-06-26T06:46:26.122Z,21.80
2019-06-26T06:48:54.691Z,21.80
2019-06-26T06:51:23.250Z,21.80
2019-06-26T06:53:51.790Z,22.20
2019-06-26T06:56:20.354Z,22.30
2019-06-26T06:58:48.894Z,22.10
2019-06-26T07:01:17.471Z,22.00
2019-06-26T07:03:46.102Z,22.00
2019-06-26T07:06:14.664Z,22.00
2019-06-26T07:08:43.254Z,22.00
2019-06-26T07:11:11.797Z,21.90
2019-06-26T07:13:40.380Z,22.10
2019-06-26T07:16:09.992Z,22.10
2019-06-26T07:18:38.593Z,22.10
2019-06-26T07:21:07.222Z,22.00
2019-06-26T07:23:35.769Z,22.00
2019-06-26T07:26:05.606Z,22.20
2019-06-26T07:28:34.143Z,22.20
2019-06-26T07:31:02.691Z,22.30
2019-06-26T07:33:31.250Z,22.20
2019-06-26T07:35:59.798Z,22.30
2019-06-26T07:38:28.363Z,22.30
2019-06-26T07:40:56.942Z,22.40
2019-06-26T07:43:25.487Z,22.60
2019-06-26T07:45:54.037Z,22.60
2019-06-26T07:48:22.618Z,22.70
2019-06-26T07:50:51.179Z,22.80
2019-06-26T07:53:19.754Z,22.80
2019-06-26T07:55:48.342Z,22.70
2019-06-26T07:58:16.975Z,22.80
2019-06-26T08:00:45.693Z,22.90
2019-06-26T08:03:14.614Z,22.90
2019-06-26T08:05:43.484Z,22.90
2019-06-26T08:08:14.569Z,22.80
2019-06-26T08:10:43.250Z,22.90
2019-06-26T08:13:11.846Z,23.00
2019-06-26T08:15:40.971Z,23.00
2019-06-26T08:18:09.633Z,23.00
2019-06-26T08:20:51.863Z,23.10
2019-06-26T08:23:09.220Z,23.00
2019-06-26T08:25:37.842Z,23.10
2019-06-26T08:28:06.363Z,23.30
2019-06-26T08:30:34.936Z,23.30
2019-06-26T08:33:03.503Z,23.20
2019-06-26T08:35:32.197Z,23.30
2019-06-26T08:38:11.080Z,23.20
2019-06-26T08:40:31.477Z,23.30
2019-06-26T08:43:00.173Z,23.30
2019-06-26T08:45:28.676Z,23.50
2019-06-26T08:47:57.249Z,23.70
2019-06-26T08:50:25.814Z,23.80
2019-06-26T08:52:54.512Z,23.80
2019-06-26T08:55:23.075Z,23.80
2019-06-26T08:57:51.796Z,23.90
2019-06-26T09:00:21.384Z,23.80
2019-06-26T09:02:50.023Z,23.80
2019-06-26T09:05:19.354Z,23.60
2019-06-26T09:07:47.918Z,23.70
2019-06-26T09:10:17.585Z,23.80
2019-06-26T09:12:46.202Z,23.90
2019-06-26T09:15:14.818Z,23.80
2019-06-26T09:17:43.439Z,23.90
2019-06-26T09:20:12.535Z,24.20
2019-06-26T09:22:41.094Z,24.30
2019-06-26T09:25:21.818Z,24.40
2019-06-26T09:27:41.587Z,24.60
2019-06-26T09:30:10.789Z,24.70
2019-06-26T09:32:39.358Z,24.70
2019-06-26T09:35:08.148Z,24.40
2019-06-26T09:37:36.673Z,24.10
2019-06-26T09:40:06.788Z,24.30
2019-06-26T09:42:35.430Z,24.30
2019-06-26T09:45:06.529Z,24.60
2019-06-26T09:47:35.160Z,24.60
2019-06-26T09:50:07.097Z,24.60
2019-06-26T09:52:35.645Z,24.80
2019-06-26T09:55:06.512Z,25.10
2019-06-26T09:57:35.118Z,25.30
2019-06-26T10:00:08.039Z,25.60
2019-06-26T10:02:36.586Z,25.60
2019-06-26T10:05:06.755Z,25.40
2019-06-26T10:07:35.385Z,25.50
2019-06-26T10:10:04.873Z,25.50
2019-06-26T10:12:33.487Z,25.60
2019-06-26T10:15:02.134Z,25.80
2019-06-26T10:17:30.658Z,25.90
2019-06-26T10:19:59.352Z,25.80
2019-06-26T10:22:27.897Z,25.90
2019-06-26T10:24:56.529Z,25.60
2019-06-26T10:27:25.143Z,25.90
2019-06-26T10:29:53.779Z,25.80
2019-06-26T10:32:22.321Z,26.20
2019-06-26T10:34:50.882Z,26.20
2019-06-26T10:37:19.443Z,26.20
2019-06-26T10:39:48.006Z,26.20
2019-06-26T10:42:16.560Z,26.30
2019-06-26T10:44:45.124Z,26.60
2019-06-26T10:47:13.707Z,26.70
2019-06-26T10:49:42.261Z,26.80
2019-06-26T10:52:10.909Z,27.00
2019-06-26T10:54:39.429Z,27.00
2019-06-26T10:57:08.007Z,26.90
2019-06-26T10:59:36.574Z,27.00
2019-06-26T11:02:05.319Z,27.30
2019-06-26T11:04:33.942Z,27.30
2019-06-26T11:07:02.565Z,27.30
2019-06-26T11:09:31.163Z,27.50
2019-06-26T11:11:59.713Z,27.60
2019-06-26T11:14:28.328Z,27.00
2019-06-26T11:16:56.844Z,27.00
2019-06-26T11:19:25.565Z,26.80
2019-06-26T11:21:54.046Z,26.60
2019-06-26T11:24:23.874Z,26.20
2019-06-26T11:26:52.438Z,26.20
2019-06-26T11:29:20.993Z,26.40
2019-06-26T11:31:49.666Z,25.60
2019-06-26T11:34:18.225Z,25.60
2019-06-26T11:37:02.731Z,25.60
2019-06-26T11:39:17.052Z,25.90
2019-06-26T11:41:45.635Z,26.40
2019-06-26T11:44:14.163Z,26.90
2019-06-26T11:46:42.852Z,26.80
2019-06-26T11:49:11.766Z,27.10
2019-06-26T11:51:40.345Z,26.70
2019-06-26T11:54:08.940Z,26.40
2019-06-26T11:56:37.564Z,25.70
2019-06-26T11:59:06.266Z,25.50
2019-06-26T12:01:34.834Z,25.50
2019-06-26T12:04:03.524Z,26.40
2019-06-26T12:06:32.088Z,26.80
2019-06-26T12:09:00.631Z,26.80
2019-06-26T12:58:44.941Z,24.70
2019-06-26T13:04:45.127Z,24.60
2019-06-26T13:07:13.907Z,25.40
2019-06-26T13:09:42.515Z,25.40
2019-06-26T13:12:11.141Z,25.20
2019-06-26T13:14:39.722Z,25.10
2019-06-26T13:17:08.395Z,25.10
2019-06-26T13:19:36.934Z,25.60
2019-06-26T13:22:05.651Z,26.10
2019-06-26T13:24:34.305Z,25.60
2019-06-26T13:27:02.870Z,25.00
2019-06-26T13:29:31.489Z,24.60
2019-06-26T13:32:00.076Z,24.80
2019-06-26T13:34:28.617Z,25.40
2019-06-26T13:36:57.247Z,25.40
2019-06-26T13:39:25.822Z,25.40
2019-06-26T13:41:54.367Z,25.50
2019-06-26T13:44:22.919Z,25.40
2019-06-26T13:46:51.537Z,25.50
2019-06-26T13:49:20.116Z,25.70
2019-06-26T13:51:48.666Z,26.00
2019-06-26T13:54:17.240Z,26.20
2019-06-26T13:56:45.797Z,26.00
2019-06-26T13:59:14.341Z,26.70
2019-06-26T14:01:42.913Z,26.50
2019-06-26T14:04:11.535Z,27.20
2019-06-26T14:06:40.107Z,27.30
2019-06-26T14:09:08.973Z,27.40
2019-06-26T14:11:37.534Z,27.10
2019-06-26T14:14:06.086Z,27.60
2019-06-26T14:16:34.664Z,26.70
2019-06-26T14:19:03.249Z,26.60
2019-06-26T14:21:31.817Z,26.90
2019-06-26T14:24:00.382Z,26.80
2019-06-26T14:26:28.986Z,26.50
2019-06-26T14:28:57.547Z,26.60
2019-06-26T14:31:26.106Z,26.40
2019-06-26T14:33:54.677Z,26.50
2019-06-26T14:36:23.560Z,26.60
2019-06-26T14:38:52.695Z,26.80
2019-06-26T14:41:21.463Z,26.60
2019-06-26T14:43:50.013Z,26.10
2019-06-26T14:46:18.638Z,25.60
2019-06-26T14:48:47.286Z,25.50
2019-06-26T14:51:15.845Z,25.40
2019-06-26T14:53:44.442Z,25.40
2019-06-26T14:56:14.927Z,25.60
2019-06-26T14:58:43.478Z,25.50
2019-06-26T15:01:12.039Z,25.50
2019-06-26T15:03:40.598Z,25.30
2019-06-26T15:06:16.571Z,24.80
2019-06-26T15:08:39.392Z,24.90
2019-06-26T15:11:08.090Z,24.60
2019-06-26T15:13:36.750Z,24.80
2019-06-26T15:16:05.399Z,25.00
2019-06-26T15:18:34.132Z,24.60
2019-06-26T15:21:02.758Z,25.10
2019-06-26T15:23:31.376Z,25.40
2019-06-26T15:26:00.059Z,25.60
2019-06-26T15:28:28.617Z,26.50
2019-06-26T15:30:57.247Z,26.10
2019-06-26T15:33:26.027Z,26.20
2019-06-26T15:35:54.651Z,26.00
2019-06-26T15:38:23.249Z,26.30
2019-06-26T15:40:51.826Z,26.90
2019-06-26T15:43:20.390Z,26.40
2019-06-26T15:45:49.018Z,26.00
2019-06-26T15:48:17.592Z,25.90
2019-06-26T15:50:46.241Z,25.60
2019-06-26T15:53:14.799Z,26.30
2019-06-26T15:55:43.361Z,26.80
2019-06-26T15:58:11.932Z,26.70
2019-06-26T16:00:40.479Z,26.40
2019-06-26T16:03:09.178Z,26.70
2019-06-26T16:05:37.832Z,26.30
2019-06-26T16:08:06.378Z,26.60
2019-06-26T16:10:35.021Z,26.70
2019-06-26T16:13:03.648Z,26.70
2019-06-26T16:15:33.099Z,26.30
2019-06-26T16:18:21.509Z,26.90
2019-06-26T16:20:50.059Z,26.30
2019-06-26T16:23:18.622Z,26.00
2019-06-26T16:25:47.195Z,25.70
2019-06-26T16:28:15.765Z,25.40
2019-06-26T16:30:44.322Z,26.10
2019-06-26T16:33:12.925Z,26.70
2019-06-26T16:35:41.478Z,24.50
2019-06-26T16:38:10.070Z,25.80
2019-06-26T16:40:38.651Z,26.30
2019-06-26T16:43:07.212Z,25.30
2019-06-26T16:45:35.834Z,24.40
2019-06-26T16:48:04.558Z,23.70
2019-06-26T16:50:33.048Z,23.40
2019-06-26T16:53:01.621Z,22.90
2019-06-26T16:55:30.357Z,22.30
2019-06-26T16:57:58.898Z,22.40
2019-06-26T17:00:27.367Z,23.90
2019-06-26T17:02:56.069Z,24.00
2019-06-26T17:05:24.674Z,23.00
2019-06-26T17:07:53.218Z,23.00
2019-06-26T17:10:21.929Z,23.30
2019-06-26T17:12:52.127Z,23.30
2019-06-26T17:15:20.836Z,23.60
2019-06-26T17:17:49.403Z,23.70
2019-06-26T17:20:18.517Z,23.00
2019-06-26T17:22:47.079Z,23.40
2019-06-26T17:25:15.783Z,23.60
2019-06-26T17:27:44.427Z,24.70
2019-06-26T17:30:14.064Z,25.20
2019-06-26T17:32:42.674Z,24.50
2019-06-26T17:35:11.998Z,26.20
2019-06-26T17:37:53.477Z,27.90
2019-06-26T17:40:29.590Z,27.80
2019-06-26T17:43:11.310Z,26.80
2019-06-26T17:45:30.144Z,26.60
2019-06-26T17:47:58.794Z,26.20
2019-06-26T17:50:27.367Z,26.70
2019-06-26T17:52:55.918Z,26.10
2019-06-26T17:55:24.572Z,26.20
2019-06-26T17:57:53.248Z,25.90
2019-06-26T18:00:24.880Z,25.90
2019-06-26T18:02:53.429Z,25.90
2019-06-26T18:05:22.037Z,25.60
2019-06-26T18:07:50.980Z,25.00
2019-06-26T18:10:19.550Z,23.40
2019-06-26T18:12:48.127Z,22.90
2019-06-26T18:15:18.542Z,22.40
2019-06-26T18:17:47.216Z,22.10
2019-06-26T18:20:16.175Z,21.70
2019-06-26T18:22:44.754Z,21.70
2019-06-26T18:25:16.440Z,21.60
2019-06-26T18:27:43.777Z,21.50
2019-06-26T18:30:13.359Z,21.50
2019-06-26T18:32:42.099Z,21.40
2019-06-26T18:35:11.124Z,20.90
2019-06-26T18:37:39.674Z,20.50
2019-06-26T18:40:08.864Z,20.50
2019-06-26T18:42:37.566Z,20.30
2019-06-26T18:45:07.064Z,20.50
2019-06-26T18:47:35.686Z,20.50
2019-06-26T18:50:06.405Z,20.40
2019-06-26T18:52:35.046Z,19.80
2019-06-26T18:55:07.429Z,19.90
2019-06-26T18:57:39.793Z,19.50
2019-06-26T19:00:09.534Z,19.20
2019-06-26T19:02:38.573Z,19.40
2019-06-26T19:05:09.094Z,19.50
2019-06-26T19:07:39.790Z,19.30
2019-06-26T19:10:27.708Z,19.10
2019-06-26T19:12:56.278Z,18.90
2019-06-26T19:15:25.033Z,18.70
2019-06-26T19:17:54.263Z,18.60
2019-06-26T19:20:22.890Z,18.70
2019-06-26T19:22:51.470Z,18.50
2019-06-26T19:25:20.128Z,18.50
2019-06-26T19:27:48.674Z,18.60
2019-06-26T19:30:17.923Z,18.60
2019-06-26T19:32:46.568Z,18.60
2019-06-26T19:35:19.455Z,18.90
2019-06-26T19:37:45.499Z,18.80
2019-06-26T19:40:14.906Z,18.80
2019-06-26T19:42:43.456Z,18.60
2019-06-26T19:45:12.858Z,18.50
2019-06-26T19:47:41.445Z,18.40
2019-06-26T19:50:11.379Z,18.70
2019-06-26T19:52:39.997Z,18.60
2019-06-26T19:55:09.402Z,18.60
2019-06-26T19:57:37.970Z,18.40
2019-06-26T20:00:08.907Z,18.50
2019-06-26T20:02:37.622Z,18.50
2019-06-26T20:05:07.340Z,18.40
2019-06-26T20:07:35.959Z,18.40
2019-06-26T20:10:06.860Z,18.20
2019-06-26T20:12:35.478Z,18.20
2019-06-26T20:15:07.438Z,18.10
2019-06-26T20:17:36.077Z,17.90
2019-06-26T20:20:06.518Z,17.90
2019-06-26T20:22:35.177Z,17.90
2019-06-26T20:25:05.666Z,17.80
2019-06-26T20:27:34.282Z,17.70
2019-06-26T20:30:03.483Z,17.80
2019-06-26T20:32:32.101Z,17.80
2019-06-26T20:35:00.625Z,17.80
2019-06-26T20:37:29.218Z,17.80
2019-06-26T20:39:57.981Z,17.70
2019-06-26T20:42:26.529Z,17.70
2019-06-26T20:44:55.094Z,17.60
2019-06-26T20:47:23.679Z,17.60
2019-06-26T20:49:53.615Z,17.70
2019-06-26T20:52:22.394Z,17.70
2019-06-26T20:55:00.724Z,17.80
2019-06-26T20:57:21.430Z,17.60
2019-06-26T20:59:49.993Z,17.50
2019-06-26T21:02:18.699Z,17.60
2019-06-26T21:04:47.238Z,17.60
2019-06-26T21:07:16.918Z,17.50
2019-06-26T21:09:45.583Z,17.60
2019-06-26T21:12:14.120Z,17.70
2019-06-26T21:14:42.768Z,17.50
2019-06-26T21:17:11.360Z,17.70
2019-06-26T21:19:39.923Z,17.70
2019-06-26T21:22:09.121Z,17.50
2019-06-26T21:24:37.975Z,17.40
2019-06-26T21:27:06.496Z,17.30
2019-06-26T21:29:35.071Z,17.20
2019-06-26T21:32:03.718Z,17.30
2019-06-26T21:34:32.275Z,17.30
2019-06-26T21:37:00.917Z,17.10
2019-06-26T21:39:29.502Z,17.10
2019-06-26T21:41:58.143Z,16.90
2019-06-26T21:44:26.788Z,17.00
2019-06-26T21:46:55.526Z,17.00
2019-06-26T21:49:24.153Z,17.00
2019-06-26T21:51:52.722Z,16.80
2019-06-26T21:54:21.373Z,16.80
2019-06-26T21:56:49.944Z,16.80
2019-06-26T21:59:18.515Z,16.70
2019-06-26T22:01:47.242Z,16.80
2019-06-26T22:04:16.062Z,16.70
2019-06-26T22:06:45.111Z,16.70
2019-06-26T22:09:14.817Z,16.70
2019-06-26T22:11:43.446Z,16.70
2019-06-26T22:14:12.013Z,16.60
2019-06-26T22:16:40.762Z,16.70
2019-06-26T22:19:09.430Z,16.60
2019-06-26T22:21:38.026Z,16.70
2019-06-26T22:24:06.717Z,16.80
2019-06-26T22:26:35.286Z,16.70
2019-06-26T22:29:03.855Z,16.80
2019-06-26T22:31:32.720Z,16.80
2019-06-26T22:34:01.378Z,16.70
2019-06-26T22:36:30.060Z,16.70
2019-06-26T22:38:58.902Z,16.80
2019-06-26T22:41:27.532Z,16.60
2019-06-26T22:43:56.101Z,16.70
2019-06-26T22:46:24.689Z,16.70
2019-06-26T22:48:53.314Z,16.80
2019-06-26T22:51:21.890Z,16.60
2019-06-26T22:53:50.494Z,16.60
2019-06-26T22:56:19.134Z,16.60
2019-06-26T22:58:47.721Z,16.80
2019-06-26T23:01:16.361Z,16.90
2019-06-26T23:03:44.942Z,16.90
2019-06-26T23:06:13.548Z,16.90
2019-06-26T23:08:42.153Z,16.80
2019-06-26T23:11:10.752Z,16.70
2019-06-26T23:13:39.401Z,16.70
2019-06-26T23:16:08.103Z,16.80
2019-06-26T23:18:36.685Z,16.80
2019-06-26T23:21:05.410Z,16.80
2019-06-26T23:23:34.086Z,16.80
2019-06-26T23:26:02.671Z,16.90
2019-06-26T23:28:31.323Z,17.00
2019-06-26T23:30:59.934Z,16.90
2019-06-26T23:33:28.495Z,16.90
2019-06-26T23:35:57.068Z,16.80
2019-06-26T23:38:25.723Z,16.90
2019-06-26T23:40:54.267Z,16.80
2019-06-26T23:43:23.057Z,16.80
2019-06-26T23:45:51.641Z,16.70
2019-06-26T23:48:20.412Z,16.80
2019-06-26T23:50:49.012Z,16.70
2019-06-26T23:53:17.596Z,16.60
2019-06-26T23:55:46.393Z,16.70
2019-06-26T23:58:14.963Z,16.50
